KLND/LND METAR and TAF weather

Enter ICAO airport designator
Station Type Date Time Source
KLND METAR 2020/07/09 17:53 UTC NOAA

KLND 091753Z AUTO 00000KT 10SM CLR 25/03 A3009 RMK AO2 SLP122 T02500033 10250 20106 56012


Station Type Date Time Source
KLND Decoded METAR 2020/07/09 17:53 UTC NOAA

LANDER HUNT FIELD, WY, United States (KLND) 42-49N 108-44W 1694M
Jul 09, 2020 - 01:53 PM EDT / 2020.07.09 1753 UTC
Wind: Calm:0
Visibility: 10 mile(s):0
Sky conditions: clear
Temperature: 77.0 F (25.0 C)
Dew Point: 37.9 F (3.3 C)
Relative Humidity: 24%
Pressure (altimeter): 30.09 in. Hg (1018 hPa)
Pressure tendency: 0.04 inches (1.2 hPa) lower than three hours ago
ob: KLND 091753Z AUTO 00000KT 10SM CLR 25/03 A3009 RMK AO2 SLP122 T02500033 10250 20106 56012
cycle: 18

Station Type Date Time Source
KLND TAF 2020/07/09 18:24 UTC NOAA

TAF KLND 091722Z 0918/1018 VRB05KT P6SM SKC
FM092100 27012KT P6SM FEW110
FM100200 30007KT P6SM SKC
FM100800 VRB06KT P6SM SKC
FM101600 26012G18KT P6SM SKC

Example: see airport list